Historyczne dane pomiarowe

Dodano dane terminowe – wersja testowa.

Dane z okresu 1951-2019

Wersja bazy: 1.34 [2019-03-16, lista zmian], aktualizacja planowana na 2019-04-15

Dane meteo z obszaru Polski uzyskane na podstawie danych udostępnionych przez Instytut Meteorologii i Gospodarki Wodnej – Państwowy Instytut Badawczy.

 

Wybierz Datę:    

       

TemperaturaWilgotnośćWiatrCiśnienieOpadyŚniegCzas trwania zjawisk
 Stacja t tx tn tng RH VA  wxwx mslp ppp RRR   cm mm wxwxwxwxwxwxwx
1961-08-14 14.1 19.3 7.3- 80.3- 3.7 2.3---- 0.0------------
1961-08-13 12.6 17.2 9.4- 82.3- 5.3 2.7---- 0.0------------
1961-08-12 17.2 22.1 13.9- 84.5- 7.0 1.0---- 0.0------------
1961-08-11 15.4 18.7 13.7- 93.8- 8.0 1.7---- 8.1------------
1961-08-10 18.1 21.8 9.9- 70.0- 6.7 2.0---- 1.5------------
1961-08-09 18.0 26.4 13.8- 80.3- 5.3 1.3---- 1.1------------
1961-08-08 15.5 20.3 10.8- 83.5- 6.0 2.0---- 0.0------------
1961-08-07 15.1 17.2 12.5- 95.5- 8.0 1.0---- 13.4------------
1961-08-06 19.5 27.9 12.7- 83.0- 5.7 3.3---- 2.1------------
1961-08-05 16.0 20.9 12.4- 84.0- 4.7 4.0---- 0.0------------
1961-08-04 14.1 18.0 7.5- 86.5- 6.0 3.0---- 1.7------------
1961-08-03 14.8 19.3 12.5- 90.3- 8.0 1.7---- 2.5------------
1961-08-02 17.9 23.2 9.5- 76.8- 4.7 3.3---- 5.3------------
1961-08-01 13.6 15.9 11.0- 93.5- 8.0 5.7---- 8.9------------
1961-07-31 14.4 17.6 11.8- 93.0- 8.0 2.0---- 22.4------------
1961-07-30 14.1 18.6 8.5- 82.5- 8.0 1.3---- 7.3------------
1961-07-29 14.1 19.1 11.4- 86.0- 6.7 1.7---- 0.0------------
1961-07-28 14.5 16.4 10.5- 94.0- 8.0 1.0---- 9.9------------
1961-07-27 16.6 22.6 13.6- 83.5- 6.7 2.7---- 0.0------------
1961-07-26 14.8 16.7 12.0- 88.8- 8.0 2.3---- 0.0------------
1961-07-25 13.9 17.6 8.5- 83.5- 7.3 2.7---- 0.0------------
1961-07-24 14.0 18.0 9.6- 92.5- 8.0 1.3---- 5.9------------
1961-07-23 14.1 18.2 11.9- 92.8- 8.0 2.3---- 4.6------------
1961-07-22 14.5 17.7 10.5- 94.5- 7.0 2.3---- 7.7------------
1961-07-21 14.1 18.0 8.2- 95.3- 7.0 1.3---- 11.2------------
1961-07-20 16.1 21.9 10.8- 82.5- 5.3 1.7---- 3.5------------
1961-07-19 16.4 23.2 10.0- 83.0- 6.7 2.3---- 0.1------------
1961-07-18 13.3 18.5 10.9- 89.8- 8.0 1.7---- 2.0------------
1961-07-17 16.5 22.2 7.4- 80.3- 6.0 1.3---- 1.7------------
1961-07-16 13.2 19.2 8.2- 94.3- 8.0 1.0---- 18.9------------
1961-07-15 15.9 22.6 8.0- 80.3- 8.0 1.3---- 1.9------------
1961-07-14 14.3 19.6 10.9- 80.5- 8.0 2.0---- 0.0------------
1961-07-13 20.4 26.5 11.5- 80.3- 6.0 3.0---- 12.8------------
1961-07-12 16.6 21.9 9.9- 85.8- 5.0 2.0---- 2.2------------
1961-07-11 14.4 19.1 9.2- 78.3- 4.7 4.0---- 0.0------------
1961-07-10 13.5 17.6 11.3- 83.8- 7.3 1.7---- 0.5------------
1961-07-09 17.1 23.5 10.4- 69.0- 5.3 2.7---- 1.0------------
1961-07-08 14.5 17.5 7.8- 78.5- 6.0 4.3---- 0.0------------
1961-07-07 11.8 15.3 7.5- 83.8- 6.7 4.0---- 1.2------------
1961-07-06 12.8 16.3 7.8- 70.3- 7.3 4.7---- 0.0------------
1961-07-05 13.6 17.7 10.8- 75.0- 6.3 5.3---- 0.0------------
1961-07-04 17.1 23.7 14.3- 78.0- 5.7 2.7---- 2.3------------
1961-07-03 22.9 29.9 10.7- 56.3- 3.7 3.0---- 5.2------------
1961-07-02 19.6 26.8 10.5- 67.5- 1.0 2.3---- 0.0------------
1961-07-01 16.6 23.0 7.9- 77.0- 2.0 1.3---- 0.0------------
1961-06-30 15.6 21.8 8.0- 79.3- 2.7 3.3---- 0.0------------
1961-06-29 14.1 17.4 8.7- 78.3- 5.0 4.3---- 0.0------------
1961-06-28 14.2 19.3 11.0- 73.5- 4.7 3.3---- 0.0------------
1961-06-27 21.9 30.4 12.8- 74.5- 3.7 5.0---- 16.4------------
1961-06-26 19.1 25.5 11.9- 72.5- 2.0 3.0---- 0.0------------
1961-06-25 20.2 26.2 12.5- 55.8- 4.0 4.0---- 0.0------------
1961-06-24 15.9 19.9 11.0- 71.3- 7.0 3.7---- 0.0------------
1961-06-23 16.1 23.0 10.3- 76.0- 4.7 3.0---- 0.0------------
1961-06-22 14.1 19.1 7.8- 73.8- 4.3 1.7---- 0.0------------
1961-06-21 13.1 20.5 6.8- 78.3- 7.0 3.7---- 6.1------------
1961-06-20 12.6 17.4 9.0- 74.8- 5.0 4.0---- 0.0------------
1961-06-19 15.4 20.4 13.7- 62.8- 5.0 4.3---- 0.0------------
1961-06-18 20.1 24.9 13.1- 71.8- 8.0 3.3---- 0.9------------
1961-06-17 15.7 21.7 10.4- 83.0- 8.0 5.0---- 0.6------------
1961-06-16 13.1 17.0 10.5- 91.3- 8.0 5.3---- 15.3------------
418.7 ms

 

Źródłem pochodzenia danych jest Instytut Meteorologii i Gospodarki Wodnej – Państwowy Instytut Badawczy. Dane Instytutu Meteorologii i Gospodarki Wodnej – Państwowego Instytutu Badawczego zostały przetworzone.

Dane źródłowe można odnaleźć na stronie https://dane.imgw.pl